Skip Navigation LinksHome page > Weather > Current weather Skip Navigation Links

Current Weather

Unknown weather station ZSPD

For information only: do not use for flight planning or navigation.
Latest weather
Observation time Monday, March 25, 2019 2:00 AM UTC
Local time Monday, March 25, 2019 2:14 AM UTC
Flight conditions Marginal Visual Meteorological Conditions
Winds
Wind direction variable
Wind speed 2 mph
Visibility 4.3 mi.
Sky condition
Ceiling unlimited
Temperature 54°F
Dewpoint 48°F
Altimeter 30.12 in.Hg
Derived measurements
Relative humidity 82%
Density altitude -422 ft.
Remarks
No significant changes expected in the next two hours.
METAR ZSPD 250200Z VRB01MPS 7000 NSC 12/09 Q1020 NOSIG

Settings

Location code

InnerDrive.Weather 4.0.6770.0 Release CLR 4.0.30319.42000
Copyright ©2018 Inner Drive Technology. All rights reserved. Portions Copyright ©1986-2018 David Braverman.

Find weather

Site navigation


Skip Navigation Links

Place info

Page info

PayPal - The safer, easier way to pay online!

Return home.

Copyright ©2019 Inner Drive Technology. Purveyors of fine, hand-crafted computer software. Page printed 2019-03-25T02:14:21 UTC.